If you wish to contribute or participate in the discussions about articles you are invited to join SKYbrary as a registered user

 Actions

Adelaide International Airport

From SKYbrary Wiki

YPAD
Airport
ICAO: YPAD – IATA: ADL
Summary
Name Adelaide International Airport
Region Asia and Pacific
Territory Christmas Island CX.gif
Location , South Australia
Serving Adelaide
Elevation 6.096 m
20 ft
20 ft6.096 m
Type medium airport
Coordinates -34° 56' 42", 138° 31' 50.0016"
Runways
Designator Length Width Surface ROPS
5/23 3100 m10,170.604 ft 45 m147.638 ft ASP yes/yes
12/30 1652 m5,419.948 ft 45 m147.638 ft ASP yes/yes


METAR
Observation YPAD 260300Z 32008KT CAVOK 23/02 Q1018 NOSIG
Station Adelaide Airport
Date/Time 26 September 2018 03:00:00
Wind direction 320°
Wind speed 08 kts
Lowest cloud amount clouds and visibility OK
Temperature 23°C
Dew point 2°C
Humidity 25%
QNH 1018 hPa
Weather condition n/a